Petaca, New Mexico
Current Conditions -  °F | °C
As of 1:35 PM on Tuesday 25 Nov 2014 (Local Time) from KSKX Reporting Station
Clear Clear  
Wind Chill: 24°   Ceiling: Unl
Heat Index: 34°   Visibility: 10mi
Dew Point: 12°   Wind: 14mph
Humidity: 41%   Direction: 190°S
Pressure: 30.24"   Gusts: 18mph
Location:  36.5°N, 106.01°W
Report Text: KSKX 252035Z AUTO 19012G16KT 10SM CLR 01/M11 A3024 RMK AO1
Loading
Personal Weather Stations






























Interactive Weather Map New forecast layout! Learn more

10-Day Weather Forecast

Advertisements
Track Severe Weather on mobile